sensor_id;sensor_type;location;lat;lon;timestamp;P1;durP1;ratioP1;P2;durP2;ratioP2
27539;SDS011;15906;52.046;4.724;2023-06-19T00:01:47;13.55;;;9.10;;
27539;SDS011;15906;52.046;4.724;2023-06-19T00:04:12;8.23;;;7.38;;
27539;SDS011;15906;52.046;4.724;2023-06-19T00:06:38;6.70;;;4.20;;
27539;SDS011;15906;52.046;4.724;2023-06-19T00:09:07;4.22;;;3.83;;
27539;SDS011;15906;52.046;4.724;2023-06-19T00:11:32;5.03;;;3.45;;
27539;SDS011;15906;52.046;4.724;2023-06-19T00:13:58;4.35;;;3.05;;
27539;SDS011;15906;52.046;4.724;2023-06-19T00:16:24;5.25;;;2.95;;
27539;SDS011;15906;52.046;4.724;2023-06-19T00:18:50;5.20;;;2.70;;
27539;SDS011;15906;52.046;4.724;2023-06-19T00:21:16;4.45;;;2.30;;
27539;SDS011;15906;52.046;4.724;2023-06-19T00:23:42;3.65;;;2.00;;
27539;SDS011;15906;52.046;4.724;2023-06-19T00:26:08;5.40;;;2.00;;
27539;SDS011;15906;52.046;4.724;2023-06-19T00:28:33;2.58;;;1.90;;
27539;SDS011;15906;52.046;4.724;2023-06-19T00:30:59;3.47;;;2.20;;
27539;SDS011;15906;52.046;4.724;2023-06-19T00:33:24;2.20;;;1.52;;
27539;SDS011;15906;52.046;4.724;2023-06-19T00:35:50;3.25;;;1.63;;
27539;SDS011;15906;52.046;4.724;2023-06-19T00:38:16;3.10;;;1.90;;
27539;SDS011;15906;52.046;4.724;2023-06-19T00:40:42;2.85;;;1.83;;
27539;SDS011;15906;52.046;4.724;2023-06-19T00:43:08;2.67;;;1.50;;
27539;SDS011;15906;52.046;4.724;2023-06-19T00:45:33;2.13;;;1.67;;
27539;SDS011;15906;52.046;4.724;2023-06-19T00:47:59;2.92;;;1.80;;
27539;SDS011;15906;52.046;4.724;2023-06-19T00:50:26;2.35;;;1.75;;
27539;SDS011;15906;52.046;4.724;2023-06-19T00:52:54;4.50;;;1.92;;
27539;SDS011;15906;52.046;4.724;2023-06-19T00:55:20;5.72;;;2.00;;
27539;SDS011;15906;52.046;4.724;2023-06-19T00:57:47;5.00;;;2.00;;
27539;SDS011;15906;52.046;4.724;2023-06-19T01:00:14;5.90;;;2.30;;
27539;SDS011;15906;52.046;4.724;2023-06-19T01:02:40;3.75;;;2.30;;
27539;SDS011;15906;52.046;4.724;2023-06-19T01:05:05;5.72;;;2.28;;
27539;SDS011;15906;52.046;4.724;2023-06-19T01:07:36;4.18;;;2.63;;
27539;SDS011;15906;52.046;4.724;2023-06-19T01:10:12;4.95;;;2.70;;
27539;SDS011;15906;52.046;4.724;2023-06-19T01:12:43;4.53;;;2.55;;
27539;SDS011;15906;52.046;4.724;2023-06-19T01:15:15;5.60;;;2.85;;
27539;SDS011;15906;52.046;4.724;2023-06-19T01:17:41;8.52;;;4.10;;
27539;SDS011;15906;52.046;4.724;2023-06-19T01:20:08;7.03;;;3.80;;
27539;SDS011;15906;52.046;4.724;2023-06-19T01:22:35;6.68;;;4.10;;
27539;SDS011;15906;52.046;4.724;2023-06-19T01:25:01;6.60;;;3.80;;
27539;SDS011;15906;52.046;4.724;2023-06-19T01:27:27;6.93;;;4.38;;
27539;SDS011;15906;52.046;4.724;2023-06-19T01:29:59;5.65;;;4.18;;
27539;SDS011;15906;52.046;4.724;2023-06-19T01:32:29;6.10;;;4.70;;
27539;SDS011;15906;52.046;4.724;2023-06-19T01:35:00;10.00;;;5.57;;
27539;SDS011;15906;52.046;4.724;2023-06-19T01:37:27;8.13;;;6.00;;
27539;SDS011;15906;52.046;4.724;2023-06-19T01:39:56;8.93;;;5.72;;
27539;SDS011;15906;52.046;4.724;2023-06-19T01:42:23;8.70;;;5.95;;
27539;SDS011;15906;52.046;4.724;2023-06-19T01:44:51;7.97;;;5.93;;
27539;SDS011;15906;52.046;4.724;2023-06-19T01:47:17;25.67;;;6.95;;
27539;SDS011;15906;52.046;4.724;2023-06-19T01:49:47;9.50;;;6.95;;
27539;SDS011;15906;52.046;4.724;2023-06-19T01:52:13;8.27;;;6.72;;
27539;SDS011;15906;52.046;4.724;2023-06-19T01:54:39;8.38;;;7.53;;
27539;SDS011;15906;52.046;4.724;2023-06-19T01:57:05;8.80;;;6.82;;
27539;SDS011;15906;52.046;4.724;2023-06-19T01:59:31;7.82;;;7.03;;
27539;SDS011;15906;52.046;4.724;2023-06-19T02:01:57;7.75;;;6.68;;
27539;SDS011;15906;52.046;4.724;2023-06-19T02:04:22;8.57;;;7.38;;
27539;SDS011;15906;52.046;4.724;2023-06-19T02:06:48;7.97;;;6.55;;
27539;SDS011;15906;52.046;4.724;2023-06-19T02:09:13;7.47;;;6.45;;
27539;SDS011;15906;52.046;4.724;2023-06-19T02:11:39;7.57;;;6.88;;
27539;SDS011;15906;52.046;4.724;2023-06-19T02:14:04;9.65;;;7.35;;
27539;SDS011;15906;52.046;4.724;2023-06-19T02:16:30;7.28;;;6.57;;
27539;SDS011;15906;52.046;4.724;2023-06-19T02:18:55;8.32;;;7.30;;
27539;SDS011;15906;52.046;4.724;2023-06-19T02:21:21;10.82;;;7.10;;
27539;SDS011;15906;52.046;4.724;2023-06-19T02:23:47;10.35;;;8.35;;
27539;SDS011;15906;52.046;4.724;2023-06-19T02:26:13;10.40;;;7.60;;
27539;SDS011;15906;52.046;4.724;2023-06-19T02:28:39;9.68;;;8.68;;
27539;SDS011;15906;52.046;4.724;2023-06-19T02:31:04;10.38;;;8.52;;
27539;SDS011;15906;52.046;4.724;2023-06-19T02:33:30;12.05;;;9.00;;
27539;SDS011;15906;52.046;4.724;2023-06-19T02:35:57;11.45;;;10.15;;
27539;SDS011;15906;52.046;4.724;2023-06-19T02:38:24;12.50;;;9.93;;
27539;SDS011;15906;52.046;4.724;2023-06-19T02:40:50;12.02;;;9.95;;
27539;SDS011;15906;52.046;4.724;2023-06-19T02:43:15;14.50;;;11.88;;
27539;SDS011;15906;52.046;4.724;2023-06-19T02:45:41;18.35;;;13.48;;
27539;SDS011;15906;52.046;4.724;2023-06-19T02:48:07;20.85;;;14.10;;
27539;SDS011;15906;52.046;4.724;2023-06-19T02:50:32;21.52;;;15.73;;
27539;SDS011;15906;52.046;4.724;2023-06-19T02:52:58;21.17;;;16.00;;
27539;SDS011;15906;52.046;4.724;2023-06-19T02:55:23;22.40;;;16.13;;
27539;SDS011;15906;52.046;4.724;2023-06-19T02:57:49;21.27;;;15.80;;
27539;SDS011;15906;52.046;4.724;2023-06-19T03:00:15;21.17;;;15.85;;
27539;SDS011;15906;52.046;4.724;2023-06-19T03:02:40;20.98;;;14.98;;
27539;SDS011;15906;52.046;4.724;2023-06-19T03:05:08;22.25;;;14.75;;
27539;SDS011;15906;52.046;4.724;2023-06-19T03:07:35;22.10;;;14.85;;
27539;SDS011;15906;52.046;4.724;2023-06-19T03:10:00;17.60;;;13.95;;
27539;SDS011;15906;52.046;4.724;2023-06-19T03:12:26;15.27;;;13.32;;
27539;SDS011;15906;52.046;4.724;2023-06-19T03:14:52;17.00;;;13.88;;
27539;SDS011;15906;52.046;4.724;2023-06-19T03:17:17;21.17;;;14.68;;
27539;SDS011;15906;52.046;4.724;2023-06-19T03:19:43;18.05;;;14.45;;
27539;SDS011;15906;52.046;4.724;2023-06-19T03:22:08;19.67;;;15.85;;
27539;SDS011;15906;52.046;4.724;2023-06-19T03:24:34;23.65;;;15.60;;
27539;SDS011;15906;52.046;4.724;2023-06-19T03:27:00;23.70;;;15.88;;
27539;SDS011;15906;52.046;4.724;2023-06-19T03:29:25;21.00;;;14.82;;
27539;SDS011;15906;52.046;4.724;2023-06-19T03:31:51;20.88;;;16.35;;
27539;SDS011;15906;52.046;4.724;2023-06-19T03:34:16;21.52;;;17.15;;
27539;SDS011;15906;52.046;4.724;2023-06-19T03:36:42;21.77;;;16.83;;
27539;SDS011;15906;52.046;4.724;2023-06-19T03:39:07;25.63;;;18.88;;
27539;SDS011;15906;52.046;4.724;2023-06-19T03:41:33;23.23;;;18.58;;
27539;SDS011;15906;52.046;4.724;2023-06-19T03:43:58;24.02;;;16.98;;
27539;SDS011;15906;52.046;4.724;2023-06-19T03:46:24;25.05;;;16.25;;
27539;SDS011;15906;52.046;4.724;2023-06-19T03:48:49;21.67;;;16.25;;
27539;SDS011;15906;52.046;4.724;2023-06-19T03:51:15;19.90;;;14.40;;
27539;SDS011;15906;52.046;4.724;2023-06-19T03:53:40;16.23;;;12.77;;
27539;SDS011;15906;52.046;4.724;2023-06-19T03:56:07;17.42;;;12.48;;
27539;SDS011;15906;52.046;4.724;2023-06-19T03:58:33;16.30;;;11.07;;
27539;SDS011;15906;52.046;4.724;2023-06-19T04:00:58;13.93;;;10.45;;
27539;SDS011;15906;52.046;4.724;2023-06-19T04:03:24;16.58;;;10.70;;
27539;SDS011;15906;52.046;4.724;2023-06-19T04:05:49;13.05;;;9.40;;
27539;SDS011;15906;52.046;4.724;2023-06-19T04:08:15;14.95;;;9.57;;
27539;SDS011;15906;52.046;4.724;2023-06-19T04:10:41;11.55;;;8.45;;
27539;SDS011;15906;52.046;4.724;2023-06-19T04:13:06;8.48;;;7.47;;
27539;SDS011;15906;52.046;4.724;2023-06-19T04:15:32;7.18;;;6.07;;
27539;SDS011;15906;52.046;4.724;2023-06-19T04:17:59;10.38;;;7.18;;
27539;SDS011;15906;52.046;4.724;2023-06-19T04:20:26;9.25;;;7.30;;
27539;SDS011;15906;52.046;4.724;2023-06-19T04:22:52;5.72;;;5.22;;
27539;SDS011;15906;52.046;4.724;2023-06-19T04:25:17;6.47;;;5.00;;
27539;SDS011;15906;52.046;4.724;2023-06-19T04:27:43;11.35;;;5.57;;
27539;SDS011;15906;52.046;4.724;2023-06-19T04:30:12;8.15;;;5.80;;
27539;SDS011;15906;52.046;4.724;2023-06-19T04:32:38;6.85;;;5.38;;
27539;SDS011;15906;52.046;4.724;2023-06-19T04:35:07;9.35;;;5.40;;
27539;SDS011;15906;52.046;4.724;2023-06-19T04:37:33;8.18;;;5.18;;
27539;SDS011;15906;52.046;4.724;2023-06-19T04:39:59;8.90;;;6.57;;
27539;SDS011;15906;52.046;4.724;2023-06-19T04:42:24;7.88;;;6.65;;
27539;SDS011;15906;52.046;4.724;2023-06-19T04:44:51;8.88;;;6.32;;
27539;SDS011;15906;52.046;4.724;2023-06-19T04:47:17;9.48;;;7.72;;
27539;SDS011;15906;52.046;4.724;2023-06-19T04:49:45;12.68;;;8.00;;
27539;SDS011;15906;52.046;4.724;2023-06-19T04:52:11;7.93;;;7.13;;
27539;SDS011;15906;52.046;4.724;2023-06-19T04:54:37;9.70;;;7.90;;
27539;SDS011;15906;52.046;4.724;2023-06-19T04:57:03;8.30;;;7.50;;
27539;SDS011;15906;52.046;4.724;2023-06-19T04:59:30;11.40;;;8.95;;
27539;SDS011;15906;52.046;4.724;2023-06-19T05:01:56;10.25;;;8.95;;
27539;SDS011;15906;52.046;4.724;2023-06-19T05:04:22;10.50;;;8.57;;
27539;SDS011;15906;52.046;4.724;2023-06-19T05:06:50;13.00;;;9.80;;
27539;SDS011;15906;52.046;4.724;2023-06-19T05:09:16;15.65;;;9.65;;
27539;SDS011;15906;52.046;4.724;2023-06-19T05:11:42;12.45;;;9.95;;
27539;SDS011;15906;52.046;4.724;2023-06-19T05:14:08;12.32;;;9.63;;
27539;SDS011;15906;52.046;4.724;2023-06-19T05:16:34;11.55;;;8.80;;
27539;SDS011;15906;52.046;4.724;2023-06-19T05:18:59;12.43;;;9.40;;
27539;SDS011;15906;52.046;4.724;2023-06-19T05:21:25;10.77;;;9.45;;
27539;SDS011;15906;52.046;4.724;2023-06-19T05:23:51;12.63;;;9.40;;
27539;SDS011;15906;52.046;4.724;2023-06-19T05:26:17;11.35;;;9.23;;
27539;SDS011;15906;52.046;4.724;2023-06-19T05:28:43;15.20;;;8.90;;
27539;SDS011;15906;52.046;4.724;2023-06-19T05:31:09;13.13;;;9.57;;
27539;SDS011;15906;52.046;4.724;2023-06-19T05:33:34;13.23;;;8.90;;
27539;SDS011;15906;52.046;4.724;2023-06-19T05:36:00;13.38;;;9.52;;
27539;SDS011;15906;52.046;4.724;2023-06-19T05:38:26;14.30;;;9.82;;
27539;SDS011;15906;52.046;4.724;2023-06-19T05:40:55;14.90;;;10.18;;
27539;SDS011;15906;52.046;4.724;2023-06-19T05:43:20;14.23;;;10.32;;
27539;SDS011;15906;52.046;4.724;2023-06-19T05:45:47;17.30;;;11.40;;
27539;SDS011;15906;52.046;4.724;2023-06-19T05:48:13;18.00;;;10.10;;
27539;SDS011;15906;52.046;4.724;2023-06-19T05:50:38;14.07;;;11.55;;
27539;SDS011;15906;52.046;4.724;2023-06-19T05:53:04;17.65;;;12.25;;
27539;SDS011;15906;52.046;4.724;2023-06-19T05:55:30;18.50;;;13.88;;
27539;SDS011;15906;52.046;4.724;2023-06-19T05:57:57;19.98;;;14.70;;
27539;SDS011;15906;52.046;4.724;2023-06-19T06:00:23;19.80;;;15.38;;
27539;SDS011;15906;52.046;4.724;2023-06-19T06:02:49;23.67;;;15.10;;
27539;SDS011;15906;52.046;4.724;2023-06-19T06:05:16;20.52;;;14.48;;
27539;SDS011;15906;52.046;4.724;2023-06-19T06:07:44;19.23;;;14.45;;
27539;SDS011;15906;52.046;4.724;2023-06-19T06:10:10;16.52;;;13.27;;
27539;SDS011;15906;52.046;4.724;2023-06-19T06:12:35;19.30;;;14.13;;
27539;SDS011;15906;52.046;4.724;2023-06-19T06:15:01;16.73;;;13.13;;
27539;SDS011;15906;52.046;4.724;2023-06-19T06:17:28;18.38;;;14.85;;
27539;SDS011;15906;52.046;4.724;2023-06-19T06:19:54;24.95;;;16.10;;
27539;SDS011;15906;52.046;4.724;2023-06-19T06:22:20;21.00;;;16.30;;
27539;SDS011;15906;52.046;4.724;2023-06-19T06:24:45;22.45;;;16.35;;
27539;SDS011;15906;52.046;4.724;2023-06-19T06:27:12;22.80;;;16.77;;
27539;SDS011;15906;52.046;4.724;2023-06-19T06:29:38;19.67;;;16.27;;
27539;SDS011;15906;52.046;4.724;2023-06-19T06:32:04;24.35;;;18.00;;
27539;SDS011;15906;52.046;4.724;2023-06-19T06:34:31;25.50;;;17.48;;
27539;SDS011;15906;52.046;4.724;2023-06-19T06:36:57;23.50;;;16.95;;
27539;SDS011;15906;52.046;4.724;2023-06-19T06:39:23;21.17;;;16.98;;
27539;SDS011;15906;52.046;4.724;2023-06-19T06:41:49;19.70;;;16.73;;
27539;SDS011;15906;52.046;4.724;2023-06-19T06:44:15;22.88;;;15.80;;
27539;SDS011;15906;52.046;4.724;2023-06-19T06:46:40;20.33;;;15.05;;
27539;SDS011;15906;52.046;4.724;2023-06-19T06:49:06;24.98;;;13.50;;
27539;SDS011;15906;52.046;4.724;2023-06-19T06:51:31;17.48;;;14.27;;
27539;SDS011;15906;52.046;4.724;2023-06-19T06:53:57;20.00;;;13.77;;
27539;SDS011;15906;52.046;4.724;2023-06-19T06:56:22;20.25;;;12.82;;
27539;SDS011;15906;52.046;4.724;2023-06-19T06:58:48;19.67;;;13.40;;
27539;SDS011;15906;52.046;4.724;2023-06-19T07:01:14;18.17;;;11.60;;
27539;SDS011;15906;52.046;4.724;2023-06-19T07:03:39;15.43;;;11.50;;
27539;SDS011;15906;52.046;4.724;2023-06-19T07:06:05;16.17;;;11.63;;
27539;SDS011;15906;52.046;4.724;2023-06-19T07:08:30;17.75;;;12.55;;
27539;SDS011;15906;52.046;4.724;2023-06-19T07:10:56;16.73;;;12.95;;
27539;SDS011;15906;52.046;4.724;2023-06-19T07:13:22;16.55;;;12.25;;
27539;SDS011;15906;52.046;4.724;2023-06-19T07:15:48;13.85;;;11.32;;
27539;SDS011;15906;52.046;4.724;2023-06-19T07:18:13;13.52;;;11.10;;
27539;SDS011;15906;52.046;4.724;2023-06-19T07:20:39;19.02;;;12.82;;
27539;SDS011;15906;52.046;4.724;2023-06-19T07:23:05;19.40;;;11.63;;
27539;SDS011;15906;52.046;4.724;2023-06-19T07:25:31;18.88;;;11.60;;
27539;SDS011;15906;52.046;4.724;2023-06-19T07:27:58;15.77;;;10.95;;
27539;SDS011;15906;52.046;4.724;2023-06-19T07:30:24;20.02;;;11.98;;
27539;SDS011;15906;52.046;4.724;2023-06-19T07:32:50;16.58;;;12.73;;
27539;SDS011;15906;52.046;4.724;2023-06-19T07:35:16;20.63;;;12.15;;
27539;SDS011;15906;52.046;4.724;2023-06-19T07:37:42;17.38;;;11.88;;
27539;SDS011;15906;52.046;4.724;2023-06-19T07:40:08;17.60;;;12.48;;
27539;SDS011;15906;52.046;4.724;2023-06-19T07:42:34;18.90;;;12.35;;
27539;SDS011;15906;52.046;4.724;2023-06-19T07:44:59;15.77;;;12.23;;
27539;SDS011;15906;52.046;4.724;2023-06-19T07:47:26;16.05;;;11.30;;
27539;SDS011;15906;52.046;4.724;2023-06-19T07:49:51;16.25;;;10.77;;
27539;SDS011;15906;52.046;4.724;2023-06-19T07:52:17;15.98;;;12.27;;
27539;SDS011;15906;52.046;4.724;2023-06-19T07:54:53;17.38;;;11.93;;
27539;SDS011;15906;52.046;4.724;2023-06-19T07:57:20;20.83;;;12.20;;
27539;SDS011;15906;52.046;4.724;2023-06-19T07:59:46;17.23;;;11.68;;
27539;SDS011;15906;52.046;4.724;2023-06-19T08:02:13;18.08;;;11.18;;
27539;SDS011;15906;52.046;4.724;2023-06-19T08:04:39;14.45;;;11.32;;
27539;SDS011;15906;52.046;4.724;2023-06-19T08:07:04;17.67;;;12.85;;
27539;SDS011;15906;52.046;4.724;2023-06-19T08:09:30;19.48;;;12.70;;
27539;SDS011;15906;52.046;4.724;2023-06-19T08:11:56;24.20;;;16.20;;
27539;SDS011;15906;52.046;4.724;2023-06-19T08:14:22;18.50;;;14.20;;
27539;SDS011;15906;52.046;4.724;2023-06-19T08:16:48;18.30;;;12.70;;
27539;SDS011;15906;52.046;4.724;2023-06-19T08:19:13;17.58;;;14.32;;
27539;SDS011;15906;52.046;4.724;2023-06-19T08:21:39;19.52;;;15.35;;
27539;SDS011;15906;52.046;4.724;2023-06-19T08:24:05;21.85;;;17.23;;
27539;SDS011;15906;52.046;4.724;2023-06-19T08:26:31;25.25;;;19.00;;
27539;SDS011;15906;52.046;4.724;2023-06-19T08:28:56;26.25;;;19.33;;
27539;SDS011;15906;52.046;4.724;2023-06-19T08:31:22;23.52;;;17.65;;
27539;SDS011;15906;52.046;4.724;2023-06-19T08:33:52;25.67;;;18.98;;
27539;SDS011;15906;52.046;4.724;2023-06-19T08:36:18;25.25;;;19.50;;
27539;SDS011;15906;52.046;4.724;2023-06-19T08:38:44;24.80;;;19.17;;
27539;SDS011;15906;52.046;4.724;2023-06-19T08:41:12;27.15;;;18.70;;
27539;SDS011;15906;52.046;4.724;2023-06-19T08:43:37;23.05;;;16.77;;
27539;SDS011;15906;52.046;4.724;2023-06-19T08:46:21;23.77;;;15.73;;
27539;SDS011;15906;52.046;4.724;2023-06-19T08:48:47;22.05;;;14.70;;
27539;SDS011;15906;52.046;4.724;2023-06-19T08:51:12;20.15;;;14.75;;
27539;SDS011;15906;52.046;4.724;2023-06-19T08:53:45;23.35;;;15.77;;
27539;SDS011;15906;52.046;4.724;2023-06-19T08:56:11;19.42;;;15.65;;
27539;SDS011;15906;52.046;4.724;2023-06-19T08:58:37;18.17;;;14.25;;
27539;SDS011;15906;52.046;4.724;2023-06-19T09:01:03;20.00;;;15.18;;
27539;SDS011;15906;52.046;4.724;2023-06-19T09:03:29;17.45;;;14.30;;
27539;SDS011;15906;52.046;4.724;2023-06-19T09:05:54;22.30;;;15.73;;
27539;SDS011;15906;52.046;4.724;2023-06-19T09:08:21;21.98;;;15.48;;
27539;SDS011;15906;52.046;4.724;2023-06-19T09:10:57;24.63;;;17.88;;
27539;SDS011;15906;52.046;4.724;2023-06-19T09:13:24;24.77;;;17.05;;
27539;SDS011;15906;52.046;4.724;2023-06-19T09:15:57;26.40;;;19.70;;
27539;SDS011;15906;52.046;4.724;2023-06-19T09:18:24;25.20;;;18.23;;
27539;SDS011;15906;52.046;4.724;2023-06-19T09:20:51;24.05;;;18.50;;
27539;SDS011;15906;52.046;4.724;2023-06-19T09:23:19;28.77;;;17.95;;
27539;SDS011;15906;52.046;4.724;2023-06-19T09:25:52;23.65;;;17.58;;
27539;SDS011;15906;52.046;4.724;2023-06-19T09:28:20;25.23;;;18.40;;
27539;SDS011;15906;52.046;4.724;2023-06-19T09:30:54;26.40;;;18.23;;
27539;SDS011;15906;52.046;4.724;2023-06-19T09:33:28;26.67;;;20.15;;
27539;SDS011;15906;52.046;4.724;2023-06-19T09:35:55;28.08;;;19.80;;
27539;SDS011;15906;52.046;4.724;2023-06-19T09:38:27;32.30;;;19.92;;
27539;SDS011;15906;52.046;4.724;2023-06-19T09:40:55;24.20;;;18.33;;
27539;SDS011;15906;52.046;4.724;2023-06-19T09:43:24;30.23;;;19.60;;
27539;SDS011;15906;52.046;4.724;2023-06-19T09:45:53;27.35;;;20.40;;
27539;SDS011;15906;52.046;4.724;2023-06-19T09:48:21;26.08;;;19.02;;
27539;SDS011;15906;52.046;4.724;2023-06-19T09:50:58;23.30;;;18.25;;
27539;SDS011;15906;52.046;4.724;2023-06-19T09:53:27;22.70;;;19.13;;
27539;SDS011;15906;52.046;4.724;2023-06-19T09:55:53;28.33;;;19.73;;
27539;SDS011;15906;52.046;4.724;2023-06-19T09:58:21;23.92;;;18.63;;
27539;SDS011;15906;52.046;4.724;2023-06-19T10:00:47;27.33;;;20.27;;
27539;SDS011;15906;52.046;4.724;2023-06-19T10:03:15;24.45;;;20.52;;
27539;SDS011;15906;52.046;4.724;2023-06-19T10:05:41;29.30;;;20.10;;
27539;SDS011;15906;52.046;4.724;2023-06-19T10:08:08;24.58;;;19.65;;
27539;SDS011;15906;52.046;4.724;2023-06-19T10:10:34;26.20;;;20.42;;
27539;SDS011;15906;52.046;4.724;2023-06-19T10:13:13;27.90;;;20.15;;
27539;SDS011;15906;52.046;4.724;2023-06-19T10:15:42;27.75;;;20.42;;
27539;SDS011;15906;52.046;4.724;2023-06-19T10:18:13;24.25;;;19.60;;
27539;SDS011;15906;52.046;4.724;2023-06-19T10:20:41;28.88;;;21.63;;
27539;SDS011;15906;52.046;4.724;2023-06-19T10:23:08;26.75;;;20.23;;
27539;SDS011;15906;52.046;4.724;2023-06-19T10:25:42;28.42;;;19.75;;
27539;SDS011;15906;52.046;4.724;2023-06-19T10:28:21;23.92;;;19.42;;
27539;SDS011;15906;52.046;4.724;2023-06-19T10:31:00;22.08;;;18.67;;
27539;SDS011;15906;52.046;4.724;2023-06-19T10:33:30;25.10;;;17.27;;
27539;SDS011;15906;52.046;4.724;2023-06-19T10:36:01;24.77;;;17.40;;
27539;SDS011;15906;52.046;4.724;2023-06-19T10:38:39;22.45;;;17.30;;
27539;SDS011;15906;52.046;4.724;2023-06-19T10:41:05;20.88;;;15.45;;
27539;SDS011;15906;52.046;4.724;2023-06-19T10:43:39;22.92;;;16.92;;
27539;SDS011;15906;52.046;4.724;2023-06-19T10:46:04;21.60;;;16.42;;
27539;SDS011;15906;52.046;4.724;2023-06-19T10:48:30;24.98;;;15.95;;
27539;SDS011;15906;52.046;4.724;2023-06-19T10:50:56;20.98;;;16.27;;
27539;SDS011;15906;52.046;4.724;2023-06-19T10:53:30;21.52;;;15.80;;
27539;SDS011;15906;52.046;4.724;2023-06-19T10:56:00;19.08;;;16.92;;
27539;SDS011;15906;52.046;4.724;2023-06-19T10:58:27;19.95;;;17.08;;
27539;SDS011;15906;52.046;4.724;2023-06-19T11:00:54;19.88;;;17.25;;
27539;SDS011;15906;52.046;4.724;2023-06-19T11:03:20;19.00;;;16.83;;
27539;SDS011;15906;52.046;4.724;2023-06-19T11:05:46;20.55;;;16.88;;
27539;SDS011;15906;52.046;4.724;2023-06-19T11:08:19;21.92;;;16.63;;
27539;SDS011;15906;52.046;4.724;2023-06-19T11:10:48;18.65;;;16.25;;
27539;SDS011;15906;52.046;4.724;2023-06-19T11:13:15;16.88;;;15.07;;
27539;SDS011;15906;52.046;4.724;2023-06-19T11:15:42;16.65;;;14.95;;
27539;SDS011;15906;52.046;4.724;2023-06-19T11:18:07;16.08;;;14.00;;
27539;SDS011;15906;52.046;4.724;2023-06-19T11:20:43;14.13;;;12.68;;
27539;SDS011;15906;52.046;4.724;2023-06-19T11:23:16;14.07;;;12.00;;
27539;SDS011;15906;52.046;4.724;2023-06-19T11:25:49;19.58;;;12.48;;
27539;SDS011;15906;52.046;4.724;2023-06-19T11:28:15;16.88;;;14.38;;
27539;SDS011;15906;52.046;4.724;2023-06-19T11:30:49;16.15;;;12.52;;
27539;SDS011;15906;52.046;4.724;2023-06-19T11:33:22;17.40;;;14.18;;
27539;SDS011;15906;52.046;4.724;2023-06-19T11:35:48;17.55;;;15.18;;
27539;SDS011;15906;52.046;4.724;2023-06-19T11:38:18;18.05;;;15.27;;
27539;SDS011;15906;52.046;4.724;2023-06-19T11:40:44;17.08;;;15.27;;
27539;SDS011;15906;52.046;4.724;2023-06-19T11:43:11;17.33;;;15.55;;
27539;SDS011;15906;52.046;4.724;2023-06-19T11:45:49;21.73;;;16.13;;
27539;SDS011;15906;52.046;4.724;2023-06-19T11:48:21;17.55;;;13.38;;
27539;SDS011;15906;52.046;4.724;2023-06-19T11:50:51;17.02;;;11.85;;
27539;SDS011;15906;52.046;4.724;2023-06-19T11:53:21;15.50;;;12.48;;
27539;SDS011;15906;52.046;4.724;2023-06-19T11:55:48;10.75;;;9.65;;
27539;SDS011;15906;52.046;4.724;2023-06-19T11:58:14;11.07;;;8.68;;
27539;SDS011;15906;52.046;4.724;2023-06-19T12:00:40;11.50;;;9.73;;
27539;SDS011;15906;52.046;4.724;2023-06-19T12:03:06;11.68;;;10.13;;
27539;SDS011;15906;52.046;4.724;2023-06-19T12:05:33;11.48;;;9.57;;
27539;SDS011;15906;52.046;4.724;2023-06-19T12:07:58;11.35;;;10.18;;
27539;SDS011;15906;52.046;4.724;2023-06-19T12:10:27;11.82;;;10.35;;
27539;SDS011;15906;52.046;4.724;2023-06-19T12:12:53;9.95;;;8.50;;
27539;SDS011;15906;52.046;4.724;2023-06-19T12:15:18;11.82;;;8.85;;
27539;SDS011;15906;52.046;4.724;2023-06-19T12:17:45;11.40;;;9.60;;
27539;SDS011;15906;52.046;4.724;2023-06-19T12:20:11;14.38;;;10.70;;
27539;SDS011;15906;52.046;4.724;2023-06-19T12:22:38;13.63;;;11.50;;
27539;SDS011;15906;52.046;4.724;2023-06-19T12:25:04;13.23;;;11.18;;
27539;SDS011;15906;52.046;4.724;2023-06-19T12:27:30;13.95;;;11.35;;
27539;SDS011;15906;52.046;4.724;2023-06-19T12:29:56;13.43;;;12.00;;
27539;SDS011;15906;52.046;4.724;2023-06-19T12:32:21;14.63;;;12.07;;
27539;SDS011;15906;52.046;4.724;2023-06-19T12:34:47;17.40;;;12.13;;
27539;SDS011;15906;52.046;4.724;2023-06-19T12:37:16;17.10;;;14.80;;
27539;SDS011;15906;52.046;4.724;2023-06-19T12:39:43;16.60;;;14.52;;
27539;SDS011;15906;52.046;4.724;2023-06-19T12:42:09;15.63;;;14.00;;
27539;SDS011;15906;52.046;4.724;2023-06-19T12:44:37;16.40;;;14.73;;
27539;SDS011;15906;52.046;4.724;2023-06-19T12:47:05;16.35;;;14.13;;
27539;SDS011;15906;52.046;4.724;2023-06-19T12:49:31;17.45;;;15.00;;
27539;SDS011;15906;52.046;4.724;2023-06-19T12:51:57;16.65;;;14.80;;
27539;SDS011;15906;52.046;4.724;2023-06-19T12:54:23;17.65;;;14.65;;
27539;SDS011;15906;52.046;4.724;2023-06-19T12:56:49;15.25;;;13.73;;
27539;SDS011;15906;52.046;4.724;2023-06-19T12:59:15;17.30;;;14.80;;
27539;SDS011;15906;52.046;4.724;2023-06-19T13:01:41;17.02;;;15.23;;
27539;SDS011;15906;52.046;4.724;2023-06-19T13:04:07;15.75;;;14.15;;
27539;SDS011;15906;52.046;4.724;2023-06-19T13:06:32;20.30;;;13.98;;
27539;SDS011;15906;52.046;4.724;2023-06-19T13:08:58;16.48;;;14.55;;
27539;SDS011;15906;52.046;4.724;2023-06-19T13:11:23;15.93;;;14.23;;
27539;SDS011;15906;52.046;4.724;2023-06-19T13:13:49;15.88;;;14.02;;
27539;SDS011;15906;52.046;4.724;2023-06-19T13:16:14;20.67;;;14.68;;
27539;SDS011;15906;52.046;4.724;2023-06-19T13:18:41;15.48;;;13.85;;
27539;SDS011;15906;52.046;4.724;2023-06-19T13:21:07;16.27;;;14.57;;
27539;SDS011;15906;52.046;4.724;2023-06-19T13:23:32;16.40;;;12.25;;
27539;SDS011;15906;52.046;4.724;2023-06-19T13:25:58;17.27;;;13.00;;
27539;SDS011;15906;52.046;4.724;2023-06-19T13:28:24;16.90;;;12.95;;
27539;SDS011;15906;52.046;4.724;2023-06-19T13:30:49;15.88;;;14.10;;
27539;SDS011;15906;52.046;4.724;2023-06-19T13:33:15;16.13;;;14.45;;
27539;SDS011;15906;52.046;4.724;2023-06-19T13:35:41;17.85;;;14.02;;
27539;SDS011;15906;52.046;4.724;2023-06-19T13:38:07;15.23;;;13.63;;
27539;SDS011;15906;52.046;4.724;2023-06-19T13:40:32;14.35;;;12.95;;
27539;SDS011;15906;52.046;4.724;2023-06-19T13:42:58;15.65;;;13.02;;
27539;SDS011;15906;52.046;4.724;2023-06-19T13:45:24;13.35;;;11.98;;
27539;SDS011;15906;52.046;4.724;2023-06-19T13:47:50;15.98;;;12.15;;
27539;SDS011;15906;52.046;4.724;2023-06-19T13:50:16;13.32;;;11.88;;
27539;SDS011;15906;52.046;4.724;2023-06-19T13:52:44;11.48;;;10.30;;
27539;SDS011;15906;52.046;4.724;2023-06-19T13:55:13;14.52;;;10.43;;
27539;SDS011;15906;52.046;4.724;2023-06-19T13:57:42;14.52;;;9.82;;
27539;SDS011;15906;52.046;4.724;2023-06-19T14:00:08;11.07;;;9.85;;
27539;SDS011;15906;52.046;4.724;2023-06-19T14:02:35;11.52;;;9.80;;
27539;SDS011;15906;52.046;4.724;2023-06-19T14:05:03;11.93;;;10.15;;
27539;SDS011;15906;52.046;4.724;2023-06-19T14:07:32;12.00;;;10.77;;
27539;SDS011;15906;52.046;4.724;2023-06-19T14:09:59;12.40;;;10.60;;
27539;SDS011;15906;52.046;4.724;2023-06-19T14:12:26;16.73;;;11.88;;
27539;SDS011;15906;52.046;4.724;2023-06-19T14:45:02;13.73;;;10.20;;
27539;SDS011;15906;52.046;4.724;2023-06-19T14:47:28;13.88;;;11.00;;
27539;SDS011;15906;52.046;4.724;2023-06-19T14:49:54;11.85;;;10.30;;
27539;SDS011;15906;52.046;4.724;2023-06-19T14:52:19;18.90;;;10.63;;
27539;SDS011;15906;52.046;4.724;2023-06-19T14:54:46;11.02;;;9.82;;
27539;SDS011;15906;52.046;4.724;2023-06-19T14:57:12;10.23;;;9.07;;